Alexis, IL

3:57 PM CDT on August 28, 2016 (GMT -0500)
Galesburg Municipal | | Change Station
Active Advisory: Flood Watch

Elev 764 ft 40.94 °N, 90.43 °W | Updated 22 minutes ago

Mostly Cloudy
Mostly Cloudy
78 °F
Feels Like 78 °F
N
6
Wind Variable Wind from North

Today
High -- | Low -- °F
--% Chance of Precip.
Yesterday
High -- | Low -- °F
Precip. -- in
Pressure 30.14 in
Visibility 10.0 miles
Clouds Scattered Clouds 4800 ft
Scattered Clouds 6500 ft
Mostly Cloudy 12000 ft
Dew Point 68 °F
Humidity 73%
Rainfall 0.00 in
Snow Depth Not available.
6:25 AM 7:40 PM
Waning Crescent, 13% visible
METAR KGBG 282035Z AUTO 01005KT 10SM VCTS SCT048 SCT065 BKN120 25/20 A3014 RMK AO2 LTG DSNT NW THRU E T02540202
Pressure 30.14 in
Visibility 10.0 miles
Clouds Scattered Clouds 4800 ft
Scattered Clouds 6500 ft
Mostly Cloudy 12000 ft
Dew Point 68 °F
Humidity 73%
Rainfall 0.00 in
Snow Depth Not available.
6:25 AM 7:40 PM
Waning Crescent, 13% visible
METAR KGBG 282035Z AUTO 01005KT 10SM VCTS SCT048 SCT065 BKN120 25/20 A3014 RMK AO2 LTG DSNT NW THRU E T02540202

10-Day Weather Forecast

Almanac

Astronomy

Aug. 28, 2016 Rise Set
Actual Time
Civil Twilight
Nautical Twilight
Astronomical Twilight
Moon
Length of Visible Light
Length of Day
Tomorrow will be .
, % of the Moon is Illuminated

Today's Extremes

State Highs State Lows

Community

WunderPhotos

Upload Photos

1,935,689 photos uploaded!

WunderBlog® & News

Nearby

Air Quality

  Air Quality AQ Index Pollutant
Not available.

Snow Depth

Station Depth Elevation

Earthquake Activity

City Distance Mag. Time & Date
Minimum magnitude displayed is 2.5.

Coastal Water Temperatures

Place Temperature

Stations

Nearby Weather Stations

Station Location Temp. Windchill Dew Point Humidity Wind Precip. Elev Updated Type
                   

Watches & Warnings

Flood Watch
Issued: 10:45 AM CDT Aug. 28, 2016 – National Weather Service

The National Weather Service in Quad Cities has issued a
* Flood Watch for
the Mississippi River at Keithsburg
* until Friday.
* At 9:30 am Sunday the stage was 12.2 feet.
* Flood stage is 14.0 feet.
* Minor flooding is possible.
* Forecast... rise above flood stage Wednesday evening... and continue
rising to 14.2 feet Thursday. Fall below flood stage Friday.
* This is based on moderate confidence in the river reaching flood
stage. Forecasts may change so monitor for updated information.



Lat... Lon 4116 9097 4117 9106 4094 9099 4091 9094
      4108 9091